Terminal Aerodrome Forecast
Issued by NWS

Home | Current Version | Previous Version | Text Only | Print | Product List | Glossary Off
Versions: 1 2 3 4 5 6 7 8 9 10 11 12 13 14 15 16 17 18 19 20 21 22 23 24 25 26 27 28 29 30 31 32 33

000
FTUS43 KLOT 040200 AAA
TAFMDW
TAF AMD
KMDW 040208Z 0402/0424 29007KT P6SM SCT027 BKN030 OVC150
     FM040300 29007KT P6SM BKN027 OVC150
     FM041400 31012G20KT P6SM SCT025 BKN150
     FM041800 31015G25KT P6SM BKN200=

USA.gov is the U.S. government's official web portal to all federal, state and local government web resources and services.